Time;durP1;ratioP1;P1;durP2;ratioP2;P2;SDS_P1;SDS_P2;PMS_P1;PMS_P2;Temp;Humidity;BMP_temperature;BMP_pressure;BME280_temperature;BME280_humidity;BME280_pressure;Samples;Min_cycle;Max_cycle;Signal;HPM_P1;HPM_P2
2021/09/20 00:02:21;;;;;;;7.22;3.88;;;;;;;9.14;71.92;101552.56;5103465;28;20040;-73
2021/09/20 00:04:47;;;;;;;6.40;4.38;;;;;;;9.17;72.32;101557.78;5103689;28;20091;-73
2021/09/20 00:07:13;;;;;;;7.78;4.32;;;;;;;9.18;72.04;101564.69;5103249;28;20661;-73
2021/09/20 00:09:38;;;;;;;5.72;3.70;;;;;;;9.17;72.18;101562.97;5103438;28;20028;-74
2021/09/20 00:12:04;;;;;;;7.65;4.28;;;;;;;9.15;72.27;101553.44;5103002;28;20408;-73
2021/09/20 00:14:30;;;;;;;5.78;4.13;;;;;;;9.17;72.29;101560.38;5103351;28;20031;-73
2021/09/20 00:16:55;;;;;;;9.10;4.05;;;;;;;9.17;72.33;101560.38;5102705;28;20081;-73
2021/09/20 00:19:20;;;;;;;5.15;3.42;;;;;;;9.17;72.36;101559.50;5085141;28;20087;-73
2021/09/20 00:21:46;;;;;;;7.82;4.22;;;;;;;9.14;72.53;101555.16;5084718;28;20051;-73
2021/09/20 00:24:11;;;;;;;7.18;3.50;;;;;;;9.14;72.38;101562.03;5085092;28;20042;-73
2021/09/20 00:26:37;;;;;;;5.72;3.80;;;;;;;9.14;72.67;101552.56;5084915;28;20077;-74
2021/09/20 00:29:02;;;;;;;6.88;3.72;;;;;;;9.13;72.59;101561.19;5103240;28;20038;-72
2021/09/20 00:31:28;;;;;;;10.20;3.95;;;;;;;9.09;72.47;101554.19;5103327;28;20013;-73
2021/09/20 00:33:53;;;;;;;5.43;3.90;;;;;;;9.13;72.70;101563.78;5084927;28;20073;-73
2021/09/20 00:36:18;;;;;;;5.80;3.10;;;;;;;9.18;72.50;101564.69;5103118;28;20035;-73
2021/09/20 00:38:44;;;;;;;5.95;4.10;;;;;;;9.07;72.71;101550.72;5085030;28;20016;-73
2021/09/20 00:41:09;;;;;;;10.23;4.45;;;;;;;9.15;72.49;101564.66;5103126;28;20031;-73
2021/09/20 00:43:34;;;;;;;12.02;3.75;;;;;;;9.18;72.54;101563.84;5102924;28;20031;-73
2021/09/20 00:46:04;;;;;;;6.00;3.63;;;;;;;9.16;72.57;101560.34;5102895;28;20028;-74
2021/09/20 00:48:29;;;;;;;8.90;5.00;;;;;;;9.15;72.57;101566.38;5102957;28;20024;-74
2021/09/20 00:50:54;;;;;;;5.55;3.03;;;;;;;9.15;72.59;101564.66;5102863;28;20080;-73
2021/09/20 00:53:20;;;;;;;8.13;3.60;;;;;;;9.22;72.32;101569.97;5084556;28;20025;-73
2021/09/20 00:55:45;;;;;;;6.10;3.85;;;;;;;9.16;72.75;101565.53;5085738;28;20023;-73
2021/09/20 00:58:13;;;;;;;7.50;4.30;;;;;;;9.16;72.74;101566.41;5106525;28;20207;-73
2021/09/20 01:00:38;;;;;;;6.10;3.85;;;;;;;9.14;72.85;101562.91;5106724;28;20027;-73
2021/09/20 01:03:04;;;;;;;5.22;3.60;;;;;;;9.14;72.75;101562.91;5106395;28;20205;-73
2021/09/20 01:05:29;;;;;;;7.18;3.72;;;;;;;9.10;72.89;101553.38;5088401;28;20059;-74
2021/09/20 01:07:55;;;;;;;6.78;3.40;;;;;;;9.15;73.09;101561.22;5106558;28;20028;-73
2021/09/20 01:10:20;;;;;;;8.52;4.13;;;;;;;9.15;73.00;101563.81;5106255;28;20247;-74
2021/09/20 01:12:45;;;;;;;5.03;3.60;;;;;;;9.16;72.90;101571.59;5106137;28;20480;-73
2021/09/20 01:15:11;;;;;;;6.65;4.03;;;;;;;9.18;72.90;101569.03;5106451;28;20502;-73
2021/09/20 01:17:37;;;;;;;6.05;4.03;;;;;;;9.20;72.87;101566.47;5106037;28;20062;-73
2021/09/20 01:20:04;;;;;;;5.80;3.75;;;;;;;9.22;72.90;101562.19;5106177;28;20020;-73
2021/09/20 01:22:30;;;;;;;6.75;4.35;;;;;;;9.22;72.90;101554.41;5105963;28;20119;-73
2021/09/20 01:24:55;;;;;;;5.13;3.78;;;;;;;9.25;72.93;101554.47;5106462;28;20027;-73
2021/09/20 01:27:21;;;;;;;6.38;3.97;;;;;;;9.23;72.78;101561.31;5105645;28;20027;-73
2021/09/20 01:29:47;;;;;;;8.32;3.45;;;;;;;9.24;72.86;101555.28;5106098;28;20031;-73
2021/09/20 01:32:13;;;;;;;6.53;4.10;;;;;;;9.22;72.83;101554.41;5105811;28;20020;-73
2021/09/20 01:34:39;;;;;;;6.57;4.70;;;;;;;9.20;72.85;101549.19;5105841;28;20043;-73
2021/09/20 01:37:05;;;;;;;6.30;3.85;;;;;;;9.17;72.77;101551.72;5105982;28;20020;-72
2021/09/20 01:39:33;;;;;;;6.72;4.25;;;;;;;9.18;72.94;101559.50;5106137;28;20406;-74
2021/09/20 01:41:59;;;;;;;8.43;4.30;;;;;;;9.18;72.99;101548.31;5105834;28;20487;-73
2021/09/20 01:44:26;;;;;;;10.65;4.18;;;;;;;9.14;73.16;101549.97;5105657;28;20481;-73
2021/09/20 01:46:53;;;;;;;7.25;4.40;;;;;;;9.14;73.09;101556.84;5105638;28;20051;-73
2021/09/20 01:49:20;;;;;;;6.68;4.20;;;;;;;9.13;73.10;101548.22;5105657;28;20024;-73
2021/09/20 01:51:45;;;;;;;9.40;4.18;;;;;;;9.13;73.12;101552.53;5105590;28;20021;-73
2021/09/20 01:54:11;;;;;;;7.07;4.88;;;;;;;9.08;73.29;101539.50;5105647;28;20062;-73
2021/09/20 01:56:38;;;;;;;6.57;4.22;;;;;;;9.12;73.21;101543.88;5105219;28;20024;-72
2021/09/20 01:59:03;;;;;;;6.25;4.63;;;;;;;9.09;73.32;101541.25;5105596;28;20095;-73
2021/09/20 02:01:29;;;;;;;7.70;4.15;;;;;;;9.10;73.31;101542.13;5105664;28;20016;-74
2021/09/20 02:03:55;;;;;;;5.45;3.53;;;;;;;9.09;73.33;101548.16;5105504;28;20031;-72
2021/09/20 02:06:21;;;;;;;7.07;4.20;;;;;;;9.04;73.46;101542.91;5105785;28;20081;-71
2021/09/20 02:08:48;;;;;;;5.63;3.70;;;;;;;9.08;73.39;101541.22;5104789;28;20020;-73
2021/09/20 02:11:14;;;;;;;9.55;4.68;;;;;;;9.05;73.62;101542.03;5105211;28;20028;-73
2021/09/20 02:13:40;;;;;;;5.93;4.15;;;;;;;9.03;73.57;101544.63;5105004;28;20391;-72
2021/09/20 02:16:05;;;;;;;6.45;4.47;;;;;;;9.00;73.66;101533.31;5105256;28;20077;-73
2021/09/20 02:18:31;;;;;;;7.88;4.68;;;;;;;9.03;73.71;101538.56;5104840;28;20518;-74
2021/09/20 02:20:57;;;;;;;11.48;4.97;;;;;;;9.08;73.71;101541.22;5105133;28;20023;-73
2021/09/20 02:23:22;;;;;;;7.45;3.65;;;;;;;9.08;73.39;101531.72;5104739;28;20127;-72
2021/09/20 02:25:48;;;;;;;6.30;4.25;;;;;;;9.02;73.71;101534.22;5105055;28;20024;-72
2021/09/20 02:28:13;;;;;;;6.57;4.43;;;;;;;9.04;73.55;101540.31;5104719;28;20020;-73
2021/09/20 02:30:40;;;;;;;8.07;4.20;;;;;;;9.00;73.66;101525.56;5105371;28;20035;-73
2021/09/20 02:33:06;;;;;;;6.90;4.18;;;;;;;9.00;73.72;101534.19;5105562;28;20028;-73
2021/09/20 02:35:32;;;;;;;9.27;4.93;;;;;;;8.95;73.54;101530.66;5105710;28;20081;-74
2021/09/20 02:37:59;;;;;;;7.80;5.18;;;;;;;8.96;73.73;101532.38;5086453;28;20015;-73
2021/09/20 02:40:25;;;;;;;8.25;4.43;;;;;;;8.98;73.58;101535.88;5104513;28;20047;-73
2021/09/20 02:42:50;;;;;;;5.20;3.83;;;;;;;8.98;73.71;101532.44;5104413;28;20102;-73
2021/09/20 02:45:16;;;;;;;6.47;4.15;;;;;;;8.95;73.74;101529.78;5104506;28;20019;-73
2021/09/20 02:47:42;;;;;;;7.47;4.03;;;;;;;8.89;73.50;101521.09;5104406;28;20046;-73
2021/09/20 02:50:09;;;;;;;6.57;4.30;;;;;;;8.92;73.53;101534.09;5104466;28;20063;-73
2021/09/20 02:52:35;;;;;;;8.60;4.68;;;;;;;8.88;73.61;101544.38;5104206;28;20028;-73
2021/09/20 02:55:00;;;;;;;9.90;4.63;;;;;;;8.84;73.92;101538.25;5104305;28;20024;-73
2021/09/20 02:57:26;;;;;;;6.55;4.60;;;;;;;8.82;73.90;101549.44;5104111;28;20073;-74
2021/09/20 02:59:52;;;;;;;6.15;4.43;;;;;;;8.81;73.99;101548.56;5086190;28;20031;-73
2021/09/20 03:02:18;;;;;;;7.13;4.32;;;;;;;8.78;74.18;101541.63;5104428;28;20020;-73
2021/09/20 03:04:43;;;;;;;8.25;4.93;;;;;;;8.78;73.94;101545.91;5104183;28;20028;-73
2021/09/20 03:07:09;;;;;;;8.77;4.50;;;;;;;8.82;74.04;101545.09;5104064;28;20070;-73
2021/09/20 03:09:34;;;;;;;8.20;4.97;;;;;;;8.79;74.08;101553.72;5104137;28;20054;-73
2021/09/20 03:12:00;;;;;;;7.28;4.47;;;;;;;8.78;74.06;101554.56;5103723;28;20032;-73
2021/09/20 03:14:25;;;;;;;11.18;5.03;;;;;;;8.73;74.32;101539.78;5104083;28;20016;-73
2021/09/20 03:16:51;;;;;;;7.10;5.05;;;;;;;8.77;74.31;101550.22;5104132;28;20028;-73
2021/09/20 03:19:16;;;;;;;7.00;4.50;;;;;;;8.77;74.03;101557.13;5102775;28;20484;-73
2021/09/20 03:21:42;;;;;;;9.75;4.97;;;;;;;8.73;74.36;101551.00;5103775;28;20105;-74
2021/09/20 03:24:09;;;;;;;8.75;4.82;;;;;;;8.73;74.14;101553.59;5103966;28;20038;-73
2021/09/20 03:26:34;;;;;;;6.38;4.25;;;;;;;8.72;74.12;101549.25;5103688;28;20024;-72
2021/09/20 03:29:00;;;;;;;8.38;4.70;;;;;;;8.63;74.46;101546.50;5085568;28;20111;-71
2021/09/20 03:31:25;;;;;;;8.40;4.85;;;;;;;8.62;74.68;101556.00;5103661;28;20035;-74
2021/09/20 03:33:50;;;;;;;7.28;4.90;;;;;;;8.57;74.54;101549.88;5103727;28;20028;-73
2021/09/20 03:36:16;;;;;;;8.63;4.68;;;;;;;8.56;74.68;101548.13;5103851;28;20024;-72
2021/09/20 03:38:41;;;;;;;10.05;5.00;;;;;;;8.49;74.80;101549.69;5103629;28;20028;-71
2021/09/20 03:41:06;;;;;;;9.35;5.28;;;;;;;8.51;74.71;101550.59;5103560;28;20380;-71
2021/09/20 03:43:32;;;;;;;7.80;5.28;;;;;;;8.51;74.85;101558.38;5103374;28;20034;-71
2021/09/20 03:45:57;;;;;;;7.60;4.65;;;;;;;8.51;74.87;101549.72;5103756;28;20020;-71
2021/09/20 03:48:22;;;;;;;8.77;5.28;;;;;;;8.48;74.81;101552.25;5103437;28;20024;-72
2021/09/20 03:50:48;;;;;;;6.38;4.65;;;;;;;8.52;74.98;101561.81;5103335;28;20543;-72
2021/09/20 03:53:13;;;;;;;7.95;5.68;;;;;;;8.57;74.97;101562.81;5103352;28;20117;-72
2021/09/20 03:55:38;;;;;;;7.35;5.50;;;;;;;8.55;74.86;101564.47;5103669;28;20020;-73
2021/09/20 03:58:04;;;;;;;7.28;4.03;;;;;;;8.61;74.58;101569.78;5103160;28;20024;-72
2021/09/20 04:00:29;;;;;;;6.28;4.40;;;;;;;8.59;74.43;101561.13;5103560;28;20111;-73
2021/09/20 04:02:54;;;;;;;8.43;4.88;;;;;;;8.65;74.50;101565.53;5103320;28;20020;-73
2021/09/20 04:05:20;;;;;;;8.25;4.93;;;;;;;8.67;74.36;101556.94;5103436;28;20027;-75
2021/09/20 04:07:45;;;;;;;9.45;5.10;;;;;;;8.76;73.85;101573.50;5103404;28;20486;-71
2021/09/20 04:10:12;;;;;;;6.53;4.43;;;;;;;8.78;73.83;101569.22;5103216;28;20035;-73
2021/09/20 04:12:37;;;;;;;8.20;5.00;;;;;;;8.82;73.33;101571.00;5102944;28;20016;-71
2021/09/20 04:15:03;;;;;;;6.78;4.28;;;;;;;8.84;73.16;101564.16;5103592;28;20040;-71
2021/09/20 04:17:28;;;;;;;8.63;4.65;;;;;;;8.88;72.97;101565.94;5103078;28;20049;-71
2021/09/20 04:19:54;;;;;;;8.50;4.60;;;;;;;8.91;72.90;101565.13;5103171;28;20105;-71
2021/09/20 04:22:19;;;;;;;7.15;4.57;;;;;;;8.92;72.88;101570.34;5103668;28;20044;-71
2021/09/20 04:24:44;;;;;;;7.18;4.20;;;;;;;8.90;72.72;101563.38;5103206;28;20519;-71
2021/09/20 04:27:10;;;;;;;7.57;4.57;;;;;;;8.81;72.73;101566.69;5103016;28;20027;-68
2021/09/20 04:29:35;;;;;;;8.70;4.65;;;;;;;8.72;73.00;101558.75;5103171;28;20028;-67
2021/09/20 04:32:01;;;;;;;7.55;4.65;;;;;;;8.72;73.00;101582.91;5106102;28;20024;-72
2021/09/20 04:34:26;;;;;;;7.93;5.07;;;;;;;8.61;73.24;101574.94;5088642;28;20031;-69
2021/09/20 04:36:52;;;;;;;9.43;5.35;;;;;;;8.65;73.45;101586.25;5106859;28;20024;-69
2021/09/20 04:39:17;;;;;;;7.35;4.85;;;;;;;8.57;73.73;101575.75;5106524;28;20024;-69
2021/09/20 04:41:43;;;;;;;12.48;6.03;;;;;;;8.57;73.74;101580.94;5106442;28;20031;-68
2021/09/20 04:44:09;;;;;;;10.90;5.50;;;;;;;8.58;73.82;101585.25;5106469;28;20032;-70
2021/09/20 04:46:35;;;;;;;9.13;5.65;;;;;;;8.55;74.21;101580.00;5106946;28;20031;-70
2021/09/20 04:49:00;;;;;;;9.70;5.72;;;;;;;8.54;74.33;101580.84;5106768;28;20036;-70
2021/09/20 04:51:25;;;;;;;9.02;6.07;;;;;;;8.50;74.58;101569.53;5106531;28;20020;-70
2021/09/20 04:53:51;;;;;;;12.30;7.47;;;;;;;8.50;74.52;101579.91;5106764;28;20102;-69
2021/09/20 04:56:17;;;;;;;8.77;5.50;;;;;;;8.49;75.04;101578.16;5106690;28;20483;-70
2021/09/20 04:58:42;;;;;;;11.57;6.22;;;;;;;8.48;75.01;101578.13;5106691;28;20058;-70
2021/09/20 05:01:08;;;;;;;11.38;4.75;;;;;;;8.45;75.23;101580.66;5106643;28;20396;-69
2021/09/20 05:03:33;;;;;;;8.70;5.55;;;;;;;8.47;75.38;101579.84;5106615;28;20012;-70
2021/09/20 05:05:58;;;;;;;8.70;5.53;;;;;;;8.44;75.58;101574.59;5106431;28;20031;-70
2021/09/20 05:08:24;;;;;;;10.05;6.25;;;;;;;8.39;75.73;101577.09;5088009;28;20085;-69
2021/09/20 05:10:49;;;;;;;11.32;6.20;;;;;;;8.39;75.90;101576.22;5106416;28;20079;-69
2021/09/20 05:13:14;;;;;;;10.50;5.75;;;;;;;8.38;76.05;101582.25;5106090;28;20024;-70
2021/09/20 05:15:40;;;;;;;12.60;6.38;;;;;;;8.40;76.24;101585.75;5106374;28;20391;-70
2021/09/20 05:18:06;;;;;;;10.65;6.45;;;;;;;8.40;76.27;101585.75;5106220;28;20069;-70
2021/09/20 05:20:31;;;;;;;13.13;5.70;;;;;;;8.42;76.28;101582.34;5106275;28;20099;-69
2021/09/20 05:22:57;;;;;;;8.30;5.50;;;;;;;8.42;76.40;101587.50;5106214;28;20044;-70
2021/09/20 05:25:22;;;;;;;10.25;6.38;;;;;;;8.43;76.51;101578.03;5088099;28;20016;-70
2021/09/20 05:27:49;;;;;;;10.75;6.25;;;;;;;8.47;76.47;101584.13;5106096;28;20016;-70
2021/09/20 05:30:15;;;;;;;8.88;5.57;;;;;;;8.47;76.56;101582.44;5105990;28;20102;-70
2021/09/20 05:32:41;;;;;;;9.18;6.03;;;;;;;8.49;76.61;101580.75;5106079;28;20028;-70
2021/09/20 05:35:07;;;;;;;10.43;6.30;;;;;;;8.53;76.61;101582.53;5106014;28;20040;-70
2021/09/20 05:37:33;;;;;;;10.10;5.82;;;;;;;8.53;76.53;101587.72;5106002;28;20027;-69
2021/09/20 05:39:58;;;;;;;9.02;5.80;;;;;;;8.55;76.54;101586.06;5105899;28;20524;-70
2021/09/20 05:42:24;;;;;;;8.60;5.65;;;;;;;8.58;76.62;101581.81;5104330;28;20019;-70
2021/09/20 05:44:49;;;;;;;11.05;6.22;;;;;;;8.61;76.51;101587.03;5105769;28;20043;-70
2021/09/20 05:47:15;;;;;;;9.57;6.45;;;;;;;8.62;76.44;101584.47;5105671;28;20050;-69
2021/09/20 05:49:40;;;;;;;10.02;6.07;;;;;;;8.68;76.56;101587.19;5105773;28;20066;-70
2021/09/20 05:52:06;;;;;;;9.55;6.45;;;;;;;8.73;76.35;101589.84;5105605;28;20440;-71
2021/09/20 05:54:31;;;;;;;9.35;6.18;;;;;;;8.78;76.31;101589.94;5105910;28;20024;-70
2021/09/20 05:56:57;;;;;;;9.45;5.60;;;;;;;8.80;76.26;101594.28;5105552;28;20054;-70
2021/09/20 05:59:22;;;;;;;7.68;5.20;;;;;;;8.80;76.51;101599.47;5105583;28;20020;-70
2021/09/20 06:01:48;;;;;;;9.10;5.40;;;;;;;8.82;76.46;101591.72;5105923;28;20027;-70
2021/09/20 06:04:14;;;;;;;11.73;5.97;;;;;;;8.89;76.13;101601.38;5105806;28;20020;-71
2021/09/20 06:06:39;;;;;;;9.98;6.13;;;;;;;8.92;76.20;101601.41;5105181;28;20476;-70
2021/09/20 06:09:04;;;;;;;8.90;5.57;;;;;;;8.95;76.04;101602.28;5105193;28;20046;-70
2021/09/20 06:11:30;;;;;;;9.02;5.32;;;;;;;8.99;76.10;101604.13;5105057;28;20028;-70
2021/09/20 06:13:57;;;;;;;8.38;5.18;;;;;;;9.01;75.99;101602.44;5086585;28;20061;-70
2021/09/20 06:16:22;;;;;;;10.07;6.15;;;;;;;9.03;75.98;101601.59;5105099;28;20107;-71
2021/09/20 06:18:48;;;;;;;7.72;5.57;;;;;;;9.11;75.79;101596.56;5104919;28;20384;-71
2021/09/20 06:21:13;;;;;;;8.75;5.40;;;;;;;9.10;75.94;101597.41;5105215;28;20089;-70
2021/09/20 06:23:39;;;;;;;8.02;5.28;;;;;;;9.12;75.82;101600.03;5104808;28;20052;-71
2021/09/20 06:26:04;;;;;;;8.57;5.57;;;;;;;9.12;75.44;101600.88;5104933;28;20016;-71
2021/09/20 06:28:29;;;;;;;8.82;4.80;;;;;;;9.12;75.49;101606.06;5104704;28;20055;-72
2021/09/20 06:30:55;;;;;;;11.88;5.22;;;;;;;9.05;75.57;101599.03;5104950;28;20051;-72
2021/09/20 06:33:20;;;;;;;9.27;5.00;;;;;;;9.09;75.78;101599.97;5104854;28;20107;-71
2021/09/20 06:35:46;;;;;;;19.13;7.03;;;;;;;9.16;75.97;101592.31;5104572;28;20023;-71
2021/09/20 06:38:11;;;;;;;9.25;5.90;;;;;;;9.24;75.90;101592.44;5104336;28;20056;-71
2021/09/20 06:40:37;;;;;;;9.85;5.57;;;;;;;9.29;75.62;101590.81;5104356;28;20024;-71
2021/09/20 06:43:03;;;;;;;8.60;5.30;;;;;;;9.33;75.36;101591.72;5104104;28;20013;-71
2021/09/20 06:45:28;;;;;;;7.45;5.40;;;;;;;9.36;75.30;101599.53;5104389;28;20024;-71
2021/09/20 06:47:53;;;;;;;6.82;4.85;;;;;;;9.36;75.01;101596.09;5104140;28;20465;-70
2021/09/20 06:50:19;;;;;;;8.15;5.10;;;;;;;9.38;74.90;101600.44;5104089;28;20020;-70
2021/09/20 06:52:44;;;;;;;7.40;5.30;;;;;;;9.42;74.84;101604.81;5104060;28;20055;-71
2021/09/20 06:55:11;;;;;;;7.90;4.72;;;;;;;9.47;75.00;101612.69;5103831;28;20027;-71
2021/09/20 06:57:37;;;;;;;7.55;4.63;;;;;;;9.55;74.45;101605.03;5085433;28;20024;-70
2021/09/20 07:00:05;;;;;;;10.32;4.75;;;;;;;9.57;74.13;101605.91;5103952;28;20071;-70
2021/09/20 07:02:31;;;;;;;7.82;4.63;;;;;;;9.62;74.27;101606.84;5103822;28;20020;-71
2021/09/20 07:04:56;;;;;;;7.93;5.03;;;;;;;9.75;74.04;101612.22;5103969;28;20012;-71
2021/09/20 07:07:22;;;;;;;5.80;4.18;;;;;;;9.78;73.29;101605.34;5103853;28;20016;-71
2021/09/20 07:09:48;;;;;;;9.75;4.95;;;;;;;9.86;73.21;101608.06;5103693;28;20103;-70
2021/09/20 07:12:13;;;;;;;5.65;3.97;;;;;;;10.04;71.37;101609.16;5103522;28;20059;-70
2021/09/20 07:14:38;;;;;;;7.65;4.50;;;;;;;9.95;71.52;101611.63;5103561;28;20035;-70
2021/09/20 07:17:04;;;;;;;6.93;4.70;;;;;;;9.98;71.14;101606.47;5103683;28;20038;-69
2021/09/20 07:19:30;;;;;;;6.13;4.43;;;;;;;10.02;70.91;101616.03;5103714;28;20106;-69
2021/09/20 07:21:55;;;;;;;8.18;4.50;;;;;;;10.06;71.04;101607.47;5103224;28;20062;-70
2021/09/20 07:24:20;;;;;;;7.63;4.07;;;;;;;10.15;71.07;101622.25;5103320;28;20070;-70
2021/09/20 07:26:46;;;;;;;5.82;4.22;;;;;;;10.21;71.00;101611.97;5103303;28;20052;-72
2021/09/20 07:29:11;;;;;;;6.57;4.43;;;;;;;10.36;70.28;101624.28;5103328;28;20024;-72
2021/09/20 07:31:37;;;;;;;6.85;4.38;;;;;;;10.40;70.21;101618.25;5103226;28;20029;-71
2021/09/20 07:34:02;;;;;;;7.20;4.43;;;;;;;10.43;70.22;101621.75;5103163;28;20034;-70
2021/09/20 07:36:27;;;;;;;10.27;5.25;;;;;;;10.46;70.22;101608.78;5103214;28;20032;-71
2021/09/20 07:38:53;;;;;;;7.00;4.38;;;;;;;10.49;69.93;101614.06;5103074;28;20044;-71
2021/09/20 07:41:18;;;;;;;6.45;4.70;;;;;;;10.47;69.97;101620.94;5103277;28;20024;-70
2021/09/20 07:43:47;;;;;;;9.73;4.68;;;;;;;10.51;70.11;101620.16;5103260;28;20123;-71
2021/09/20 07:46:22;;;;;;;6.82;4.47;;;;;;;10.50;68.33;101623.56;5103048;28;20027;-71
2021/09/20 07:48:48;;;;;;;7.10;4.57;;;;;;;10.41;68.28;101614.78;5084417;28;20087;-70
2021/09/20 07:51:13;;;;;;;6.00;4.63;;;;;;;10.39;68.50;101628.63;5085006;28;20035;-71
2021/09/20 07:53:39;;;;;;;7.10;4.45;;;;;;;10.43;68.93;101629.53;5103279;28;20016;-71
2021/09/20 07:56:04;;;;;;;6.35;4.18;;;;;;;10.52;69.02;101633.16;5103328;28;20079;-72
2021/09/20 07:58:30;;;;;;;6.35;4.28;;;;;;;10.65;68.18;101638.47;5102850;28;20028;-70
2021/09/20 08:00:57;;;;;;;5.85;4.50;;;;;;;10.70;68.18;101635.94;5103179;28;20396;-70
2021/09/20 08:03:23;;;;;;;8.82;5.25;;;;;;;10.79;68.51;101636.03;5103372;28;20069;-70
2021/09/20 08:05:48;;;;;;;8.23;4.60;;;;;;;10.89;68.50;101635.25;5104421;28;20024;-72
2021/09/20 08:08:14;;;;;;;6.95;4.03;;;;;;;11.00;67.73;101640.56;5107392;28;20087;-70
2021/09/20 08:10:39;;;;;;;9.13;4.75;;;;;;;10.98;67.63;101641.41;5107528;28;20266;-71
2021/09/20 08:13:06;;;;;;;10.50;4.70;;;;;;;11.00;67.22;101650.09;5107091;28;20024;-71
2021/09/20 08:15:32;;;;;;;8.95;4.50;;;;;;;10.97;66.78;101644.88;5107427;28;20074;-72
2021/09/20 08:17:58;;;;;;;4.97;3.65;;;;;;;10.95;66.32;101636.16;5107240;28;20027;-70
2021/09/20 08:20:23;;;;;;;7.05;3.75;;;;;;;10.96;66.37;101656.97;5107374;28;20020;-70
2021/09/20 08:22:50;;;;;;;6.25;4.35;;;;;;;10.97;67.14;101657.84;5107155;28;20052;-70
2021/09/20 08:25:21;;;;;;;7.28;5.00;;;;;;;11.10;67.03;101646.69;5107164;28;20503;-69
2021/09/20 08:27:48;;;;;;;6.45;4.68;;;;;;;11.32;65.63;101656.44;5106688;28;20512;-69
2021/09/20 08:30:14;;;;;;;7.32;4.60;;;;;;;11.40;66.52;101649.56;5107008;28;20088;-69
2021/09/20 08:32:39;;;;;;;5.85;3.63;;;;;;;11.67;65.75;101655.84;5106994;28;20024;-69
2021/09/20 08:35:05;;;;;;;6.00;4.22;;;;;;;11.78;64.09;101649.00;5107115;28;20016;-69
2021/09/20 08:37:31;;;;;;;6.10;3.90;;;;;;;11.77;64.31;101649.00;5106787;28;20032;-70
2021/09/20 08:39:56;;;;;;;4.75;3.60;;;;;;;11.80;62.67;101664.63;5107278;28;20027;-71
2021/09/20 08:42:22;;;;;;;5.15;3.45;;;;;;;11.85;59.93;101657.69;5106630;28;20022;-71
2021/09/20 08:44:48;;;;;;;7.80;4.22;;;;;;;11.78;60.75;101658.53;5106758;28;20404;-69
2021/09/20 08:47:15;;;;;;;8.55;3.92;;;;;;;11.75;61.80;101661.97;5105902;28;20023;-70
2021/09/20 08:49:41;;;;;;;6.20;3.50;;;;;;;11.93;62.03;101660.38;5106525;28;20040;-69
2021/09/20 08:52:07;;;;;;;7.15;4.10;;;;;;;12.02;61.88;101660.41;5106523;28;20028;-69
2021/09/20 08:54:32;;;;;;;5.97;3.88;;;;;;;12.03;61.14;101650.84;5106667;28;20035;-70
2021/09/20 08:56:58;;;;;;;6.25;4.18;;;;;;;12.03;61.71;101654.34;5106164;28;20020;-70
2021/09/20 08:59:23;;;;;;;4.30;3.38;;;;;;;12.21;59.74;101636.22;5088061;28;20024;-70
2021/09/20 09:01:53;;;;;;;6.57;4.07;;;;;;;12.24;59.90;101644.03;5106421;28;20077;-71
2021/09/20 09:04:36;;;;;;;6.20;3.85;;;;;;;12.29;60.89;101642.34;5106509;28;20031;-70
2021/09/20 09:07:07;;;;;;;4.93;3.40;;;;;;;12.42;59.72;101653.69;5106403;28;20035;-70
2021/09/20 09:09:39;;;;;;;4.05;3.40;;;;;;;12.51;58.84;101645.03;5106392;28;20099;-70
2021/09/20 09:12:12;;;;;;;3.97;2.85;;;;;;;12.53;57.63;101635.50;5105957;28;20028;-71
2021/09/20 09:14:45;;;;;;;4.13;3.30;;;;;;;12.47;56.30;101635.47;5106495;28;20380;-71
2021/09/20 09:17:13;;;;;;;4.40;3.17;;;;;;;12.42;56.20;101625.03;5106374;28;20035;-71
2021/09/20 09:19:47;;;;;;;3.90;2.80;;;;;;;12.54;55.94;101631.16;5106085;28;20123;-71
2021/09/20 09:22:13;;;;;;;4.00;2.80;;;;;;;12.72;54.97;101626.00;5106208;28;20139;-71
2021/09/20 09:24:59;;;;;;;4.47;3.47;;;;;;;12.93;53.94;101624.28;5105984;28;20036;-71
2021/09/20 09:27:25;;;;;;;7.28;2.97;;;;;;;13.24;53.92;101619.09;5105819;28;20467;-73
2021/09/20 09:30:00;;;;;;;3.60;2.72;;;;;;;13.48;51.99;101621.69;5105762;28;20028;-72
2021/09/20 09:32:26;;;;;;;4.18;2.78;;;;;;;14.05;50.85;101614.63;5105770;28;20039;-70
2021/09/20 09:34:58;;;;;;;4.00;2.47;;;;;;;14.55;48.01;101612.69;5105990;28;20016;-71
2021/09/20 09:37:23;;;;;;;5.10;2.35;;;;;;;15.04;47.93;101621.09;5105824;28;20034;-72
2021/09/20 09:39:50;;;;;;;3.30;2.55;;;;;;;15.40;47.05;101622.56;5105836;28;20020;-71
2021/09/20 09:42:27;;;;;;;4.00;2.20;;;;;;;15.69;44.19;101603.94;5105409;28;20016;-72
2021/09/20 09:44:53;;;;;;;3.92;2.50;;;;;;;16.02;42.24;101616.72;5106032;28;20682;-71
2021/09/20 09:47:30;;;;;;;2.45;1.80;;;;;;;15.68;41.06;101614.41;5105830;28;20162;-70
2021/09/20 09:50:14;;;;;;;3.03;1.80;;;;;;;14.91;41.93;101622.03;5105758;28;20020;-70
2021/09/20 09:52:40;;;;;;;3.50;2.10;;;;;;;14.48;42.18;101621.41;5105937;28;20031;-70
2021/09/20 09:55:06;;;;;;;3.75;2.30;;;;;;;13.99;42.30;101612.91;5105593;28;20106;-71
2021/09/20 09:57:33;;;;;;;3.58;2.75;;;;;;;13.65;42.93;101623.44;5105153;28;20031;-71
2021/09/20 10:00:03;;;;;;;2.85;2.00;;;;;;;13.45;42.57;101624.31;5105389;28;20028;-71
2021/09/20 10:02:33;;;;;;;2.47;1.85;;;;;;;13.17;42.21;101608.66;5087194;28;20020;-71
2021/09/20 10:04:59;;;;;;;4.10;2.45;;;;;;;13.06;43.09;101613.88;5087029;28;20426;-70
2021/09/20 10:07:30;;;;;;;3.42;2.00;;;;;;;12.92;43.40;101612.13;5105123;28;20219;-70
2021/09/20 10:09:57;;;;;;;6.30;2.60;;;;;;;12.85;43.64;101606.03;5105055;28;20020;-70
2021/09/20 10:12:24;;;;;;;2.83;2.28;;;;;;;12.86;43.85;101612.13;5103292;28;20027;-70
2021/09/20 10:14:52;;;;;;;2.83;2.08;;;;;;;12.89;44.55;101614.75;5104860;28;20135;-70
2021/09/20 10:17:19;;;;;;;2.83;1.90;;;;;;;12.96;44.35;101612.97;5104718;28;20016;-70
2021/09/20 10:19:47;;;;;;;2.72;2.28;;;;;;;13.09;43.25;101609.53;5104631;28;20468;-70
2021/09/20 10:22:14;;;;;;;2.75;2.05;;;;;;;13.25;41.29;101615.63;5104743;28;20048;-70
2021/09/20 10:24:42;;;;;;;2.70;1.80;;;;;;;13.78;40.01;101611.22;5104876;28;20080;-70
2021/09/20 10:27:09;;;;;;;2.90;1.90;;;;;;;14.95;41.11;101608.94;5104686;28;20024;-70
2021/09/20 10:29:37;;;;;;;3.75;2.15;;;;;;;16.48;38.63;101606.50;5104047;28;20027;-69
2021/09/20 10:32:02;;;;;;;2.78;1.77;;;;;;;16.88;36.39;101584.06;5104575;28;20020;-70
2021/09/20 10:34:30;;;;;;;2.65;1.85;;;;;;;16.26;35.27;101609.44;5104800;28;20114;-70
2021/09/20 10:37:01;;;;;;;3.10;2.00;;;;;;;15.39;36.10;101610.31;5104714;28;20080;-69
2021/09/20 10:39:53;;;;;;;3.25;2.05;;;;;;;14.53;37.83;101611.81;5104768;28;20024;-70
2021/09/20 10:42:33;;;;;;;2.80;2.15;;;;;;;13.87;38.60;101613.81;5086216;28;20031;-69
2021/09/20 10:45:00;;;;;;;3.30;2.30;;;;;;;13.41;39.52;101615.59;5104826;28;20020;-71
2021/09/20 10:47:44;;;;;;;3.08;2.15;;;;;;;13.03;39.83;101617.34;5104882;28;20024;-71
2021/09/20 10:50:11;;;;;;;3.33;2.15;;;;;;;12.69;41.08;101618.16;5104785;28;20055;-71
2021/09/20 10:52:36;;;;;;;4.22;2.63;;;;;;;12.51;42.21;101611.16;5104592;28;20028;-70
2021/09/20 10:55:06;;;;;;;5.57;2.58;;;;;;;12.42;43.16;101613.75;5104651;28;20030;-70
2021/09/20 10:57:32;;;;;;;4.07;2.47;;;;;;;12.33;44.04;101605.03;5086144;28;20024;-71
2021/09/20 11:00:23;;;;;;;6.53;2.60;;;;;;;12.33;43.98;101618.03;5086250;28;20035;-70
2021/09/20 11:02:48;;;;;;;4.45;2.70;;;;;;;12.20;43.65;101608.47;5104373;28;20091;-71
2021/09/20 11:05:14;;;;;;;3.25;2.38;;;;;;;12.06;43.86;101598.81;5104584;28;20115;-69
2021/09/20 11:07:45;;;;;;;3.90;2.55;;;;;;;12.01;44.01;101600.53;5104260;28;20039;-69
2021/09/20 11:10:11;;;;;;;4.47;2.67;;;;;;;11.89;44.74;101606.53;5104214;28;20043;-71
2021/09/20 11:12:55;;;;;;;3.58;2.60;;;;;;;11.96;45.07;101602.25;5104145;28;20035;-71
2021/09/20 11:15:22;;;;;;;5.60;3.15;;;;;;;12.00;45.12;101604.00;5104426;28;20087;-70
2021/09/20 11:17:50;;;;;;;3.92;2.90;;;;;;;12.10;44.87;101607.53;5104135;28;20375;-72
2021/09/20 11:20:29;;;;;;;3.35;2.50;;;;;;;12.20;44.76;101596.31;5085851;28;20130;-71
2021/09/20 11:23:18;;;;;;;4.03;2.53;;;;;;;12.85;44.31;101590.41;5103886;28;20048;-71
2021/09/20 11:26:08;;;;;;;3.10;2.40;;;;;;;13.55;42.95;101588.66;5104005;28;20505;-70
2021/09/20 11:28:35;;;;;;;3.72;2.30;;;;;;;13.55;41.67;101592.13;5075704;28;20040;-70